sensor_id;sensor_type;location;lat;lon;timestamp;pressure;altitude;pressure_sealevel;temperature;humidity
74631;BME280;63138;55.082;38.804;2023-11-19T00:02:11;100860.78;;;-10.22;100.00
74631;BME280;63138;55.082;38.804;2023-11-19T00:04:38;100838.94;;;-10.25;100.00
74631;BME280;63138;55.082;38.804;2023-11-19T00:07:06;100862.53;;;-10.22;100.00
74631;BME280;63138;55.082;38.804;2023-11-19T00:09:33;100859.16;;;-10.30;100.00
74631;BME280;63138;55.082;38.804;2023-11-19T00:12:05;100859.22;;;-10.33;100.00
74631;BME280;63138;55.082;38.804;2023-11-19T00:14:31;100855.72;;;-10.32;100.00
74631;BME280;63138;55.082;38.804;2023-11-19T00:16:57;100860.97;;;-10.32;100.00
74631;BME280;63138;55.082;38.804;2023-11-19T00:19:22;100855.66;;;-10.29;100.00
74631;BME280;63138;55.082;38.804;2023-11-19T00:21:48;100857.28;;;-10.22;100.00
74631;BME280;63138;55.082;38.804;2023-11-19T00:24:14;100852.03;;;-10.22;100.00
74631;BME280;63138;55.082;38.804;2023-11-19T00:26:42;100859.94;;;-10.24;100.00
74631;BME280;63138;55.082;38.804;2023-11-19T00:29:08;100853.81;;;-10.24;100.00
74631;BME280;63138;55.082;38.804;2023-11-19T00:31:34;100851.13;;;-10.21;100.00
74631;BME280;63138;55.082;38.804;2023-11-19T00:34:01;100855.53;;;-10.23;100.00
74631;BME280;63138;55.082;38.804;2023-11-19T00:36:27;100848.56;;;-10.24;100.00
74631;BME280;63138;55.082;38.804;2023-11-19T00:38:54;100846.84;;;-10.28;100.00
74631;BME280;63138;55.082;38.804;2023-11-19T00:41:20;100842.63;;;-10.35;100.00
74631;BME280;63138;55.082;38.804;2023-11-19T00:43:46;100840.00;;;-10.37;100.00
74631;BME280;63138;55.082;38.804;2023-11-19T00:46:13;100837.44;;;-10.39;100.00
74631;BME280;63138;55.082;38.804;2023-11-19T00:48:39;100837.47;;;-10.42;100.00
74631;BME280;63138;55.082;38.804;2023-11-19T00:51:06;100835.72;;;-10.41;100.00
74631;BME280;63138;55.082;38.804;2023-11-19T00:53:32;100840.09;;;-10.42;100.00
74631;BME280;63138;55.082;38.804;2023-11-19T00:56:01;100834.88;;;-10.43;100.00
74631;BME280;63138;55.082;38.804;2023-11-19T00:58:26;100836.66;;;-10.47;100.00
74631;BME280;63138;55.082;38.804;2023-11-19T01:00:52;100830.59;;;-10.50;100.00
74631;BME280;63138;55.082;38.804;2023-11-19T01:03:18;100834.91;;;-10.48;100.00
74631;BME280;63138;55.082;38.804;2023-11-19T01:05:44;100829.75;;;-10.52;100.00
74631;BME280;63138;55.082;38.804;2023-11-19T01:08:12;100824.50;;;-10.54;100.00
74631;BME280;63138;55.082;38.804;2023-11-19T01:10:38;100822.84;;;-10.58;100.00
74631;BME280;63138;55.082;38.804;2023-11-19T01:13:04;100817.59;;;-10.60;100.00
74631;BME280;63138;55.082;38.804;2023-11-19T01:15:32;100815.84;;;-10.61;100.00
74631;BME280;63138;55.082;38.804;2023-11-19T01:17:58;100818.53;;;-10.64;100.00
74631;BME280;63138;55.082;38.804;2023-11-19T01:20:24;100810.66;;;-10.64;100.00
74631;BME280;63138;55.082;38.804;2023-11-19T01:22:50;100806.28;;;-10.65;100.00
74631;BME280;63138;55.082;38.804;2023-11-19T01:25:17;100807.13;;;-10.61;100.00
74631;BME280;63138;55.082;38.804;2023-11-19T01:27:45;100811.50;;;-10.62;100.00
74631;BME280;63138;55.082;38.804;2023-11-19T01:30:12;100811.50;;;-10.60;100.00
74631;BME280;63138;55.082;38.804;2023-11-19T01:32:40;100812.34;;;-10.58;100.00
74631;BME280;63138;55.082;38.804;2023-11-19T01:35:06;100809.69;;;-10.56;100.00
74631;BME280;63138;55.082;38.804;2023-11-19T01:37:34;100806.97;;;-10.52;100.00
74631;BME280;63138;55.082;38.804;2023-11-19T01:40:03;100801.53;;;-10.38;100.00
74631;BME280;63138;55.082;38.804;2023-11-19T01:42:38;100809.22;;;-10.27;100.00
74631;BME280;63138;55.082;38.804;2023-11-19T01:45:04;100805.56;;;-10.19;100.00
74631;BME280;63138;55.082;38.804;2023-11-19T01:47:33;100803.66;;;-10.10;100.00
74631;BME280;63138;55.082;38.804;2023-11-19T01:50:01;100804.41;;;-10.02;100.00
74631;BME280;63138;55.082;38.804;2023-11-19T01:52:29;100804.31;;;-9.97;100.00
74631;BME280;63138;55.082;38.804;2023-11-19T01:54:55;100793.78;;;-9.94;100.00
74631;BME280;63138;55.082;38.804;2023-11-19T01:57:22;100804.13;;;-9.85;100.00
74631;BME280;63138;55.082;38.804;2023-11-19T01:59:50;100793.56;;;-9.82;100.00
74631;BME280;63138;55.082;38.804;2023-11-19T02:02:17;100803.06;;;-9.75;100.00
74631;BME280;63138;55.082;38.804;2023-11-19T02:04:51;100802.94;;;-9.69;100.00
74631;BME280;63138;55.082;38.804;2023-11-19T02:07:19;100805.47;;;-9.61;100.00
74631;BME280;63138;55.082;38.804;2023-11-19T02:09:45;100814.06;;;-9.53;100.00
74631;BME280;63138;55.082;38.804;2023-11-19T02:12:11;100816.59;;;-9.47;100.00
74631;BME280;63138;55.082;38.804;2023-11-19T02:14:39;100814.75;;;-9.42;100.00
74631;BME280;63138;55.082;38.804;2023-11-19T02:17:05;100820.75;;;-9.36;100.00
74631;BME280;63138;55.082;38.804;2023-11-19T02:19:32;100812.00;;;-9.37;100.00
74631;BME280;63138;55.082;38.804;2023-11-19T02:21:58;100809.28;;;-9.31;100.00
74631;BME280;63138;55.082;38.804;2023-11-19T02:24:25;100820.53;;;-9.24;100.00
74631;BME280;63138;55.082;38.804;2023-11-19T02:26:53;100821.28;;;-9.17;100.00
74631;BME280;63138;55.082;38.804;2023-11-19T02:29:23;100822.06;;;-9.12;100.00
74631;BME280;63138;55.082;38.804;2023-11-19T02:31:49;100831.63;;;-9.08;100.00
74631;BME280;63138;55.082;38.804;2023-11-19T02:34:15;100825.34;;;-9.01;100.00
74631;BME280;63138;55.082;38.804;2023-11-19T02:36:41;100827.09;;;-9.00;100.00
74631;BME280;63138;55.082;38.804;2023-11-19T02:39:08;100823.47;;;-8.96;100.00
74631;BME280;63138;55.082;38.804;2023-11-19T02:41:36;100827.75;;;-8.90;100.00
74631;BME280;63138;55.082;38.804;2023-11-19T02:44:03;100823.28;;;-8.87;100.00
74631;BME280;63138;55.082;38.804;2023-11-19T02:46:32;100823.22;;;-8.83;100.00
74631;BME280;63138;55.082;38.804;2023-11-19T02:48:58;100819.63;;;-8.79;100.00
74631;BME280;63138;55.082;38.804;2023-11-19T02:51:24;100825.75;;;-8.79;100.00
74631;BME280;63138;55.082;38.804;2023-11-19T02:53:50;100818.75;;;-8.78;100.00
74631;BME280;63138;55.082;38.804;2023-11-19T02:56:16;100824.69;;;-8.70;100.00
74631;BME280;63138;55.082;38.804;2023-11-19T02:58:51;100818.44;;;-8.66;100.00
74631;BME280;63138;55.082;38.804;2023-11-19T03:01:24;100808.78;;;-8.64;100.00
74631;BME280;63138;55.082;38.804;2023-11-19T03:04:01;100812.91;;;-8.54;100.00
74631;BME280;63138;55.082;38.804;2023-11-19T03:06:28;100814.66;;;-8.53;100.00
74631;BME280;63138;55.082;38.804;2023-11-19T03:08:55;100788.28;;;-8.51;100.00
74631;BME280;63138;55.082;38.804;2023-11-19T03:11:21;100793.34;;;-8.42;100.00
74631;BME280;63138;55.082;38.804;2023-11-19T03:13:47;100794.13;;;-8.40;100.00
74631;BME280;63138;55.082;38.804;2023-11-19T03:16:13;100789.63;;;-8.35;100.00
74631;BME280;63138;55.082;38.804;2023-11-19T03:18:39;100786.03;;;-8.32;100.00
74631;BME280;63138;55.082;38.804;2023-11-19T03:21:08;100790.34;;;-8.28;100.00
74631;BME280;63138;55.082;38.804;2023-11-19T03:23:35;100779.94;;;-8.34;100.00
74631;BME280;63138;55.082;38.804;2023-11-19T03:26:01;100772.94;;;-8.35;100.00
74631;BME280;63138;55.082;38.804;2023-11-19T03:28:31;100775.69;;;-8.40;100.00
74631;BME280;63138;55.082;38.804;2023-11-19T03:30:57;100764.28;;;-8.40;100.00
74631;BME280;63138;55.082;38.804;2023-11-19T03:33:23;100767.19;;;-8.50;100.00
74631;BME280;63138;55.082;38.804;2023-11-19T03:35:54;100766.38;;;-8.53;100.00
74631;BME280;63138;55.082;38.804;2023-11-19T03:38:22;100761.22;;;-8.58;100.00
74631;BME280;63138;55.082;38.804;2023-11-19T03:40:48;100759.41;;;-8.56;100.00
74631;BME280;63138;55.082;38.804;2023-11-19T03:43:14;100759.34;;;-8.53;100.00
74631;BME280;63138;55.082;38.804;2023-11-19T03:45:41;100754.00;;;-8.50;100.00
74631;BME280;63138;55.082;38.804;2023-11-19T03:48:07;100761.00;;;-8.49;100.00
74631;BME280;63138;55.082;38.804;2023-11-19T03:50:33;100753.13;;;-8.50;100.00
74631;BME280;63138;55.082;38.804;2023-11-19T03:52:59;100754.81;;;-8.46;100.00
74631;BME280;63138;55.082;38.804;2023-11-19T03:55:25;100745.13;;;-8.46;100.00
74631;BME280;63138;55.082;38.804;2023-11-19T03:57:50;100746.81;;;-8.43;100.00
74631;BME280;63138;55.082;38.804;2023-11-19T04:00:16;100745.16;;;-8.47;100.00
74631;BME280;63138;55.082;38.804;2023-11-19T04:02:44;100750.44;;;-8.49;100.00
74631;BME280;63138;55.082;38.804;2023-11-19T04:05:10;100739.97;;;-8.52;100.00
74631;BME280;63138;55.082;38.804;2023-11-19T04:07:36;100749.63;;;-8.51;100.00
74631;BME280;63138;55.082;38.804;2023-11-19T04:10:02;100749.56;;;-8.48;100.00
74631;BME280;63138;55.082;38.804;2023-11-19T04:12:52;100745.09;;;-8.44;100.00
74631;BME280;63138;55.082;38.804;2023-11-19T04:15:18;100739.66;;;-8.39;100.00
74631;BME280;63138;55.082;38.804;2023-11-19T04:17:45;100740.44;;;-8.36;100.00
74631;BME280;63138;55.082;38.804;2023-11-19T04:20:12;100739.53;;;-8.33;100.00
74631;BME280;63138;55.082;38.804;2023-11-19T04:22:39;100724.56;;;-8.33;100.00
74631;BME280;63138;55.082;38.804;2023-11-19T04:25:06;100734.25;;;-8.33;100.00
74631;BME280;63138;55.082;38.804;2023-11-19T04:27:32;100729.84;;;-8.33;100.00
74631;BME280;63138;55.082;38.804;2023-11-19T04:29:58;100723.63;;;-8.30;100.00
74631;BME280;63138;55.082;38.804;2023-11-19T04:32:25;100708.88;;;-8.37;100.00
74631;BME280;63138;55.082;38.804;2023-11-19T04:34:52;100726.50;;;-8.41;100.00
74631;BME280;63138;55.082;38.804;2023-11-19T04:37:18;100720.38;;;-8.41;100.00
74631;BME280;63138;55.082;38.804;2023-11-19T04:39:47;100715.91;;;-8.38;100.00
74631;BME280;63138;55.082;38.804;2023-11-19T04:42:12;100713.50;;;-8.46;100.00
74631;BME280;63138;55.082;38.804;2023-11-19T04:44:38;100707.38;;;-8.46;100.00
74631;BME280;63138;55.082;38.804;2023-11-19T04:47:04;100710.19;;;-8.54;100.00
74631;BME280;63138;55.082;38.804;2023-11-19T04:49:30;100720.63;;;-8.49;100.00
74631;BME280;63138;55.082;38.804;2023-11-19T04:51:56;100720.59;;;-8.48;100.00
74631;BME280;63138;55.082;38.804;2023-11-19T04:54:21;100718.91;;;-8.52;100.00
74631;BME280;63138;55.082;38.804;2023-11-19T04:56:47;100726.78;;;-8.50;100.00
74631;BME280;63138;55.082;38.804;2023-11-19T04:59:14;100726.88;;;-8.53;100.00
74631;BME280;63138;55.082;38.804;2023-11-19T05:01:40;100736.44;;;-8.49;100.00
74631;BME280;63138;55.082;38.804;2023-11-19T05:04:07;100740.72;;;-8.45;100.00
74631;BME280;63138;55.082;38.804;2023-11-19T05:06:33;100745.97;;;-8.45;100.00
74631;BME280;63138;55.082;38.804;2023-11-19T05:09:00;100750.31;;;-8.42;100.00
74631;BME280;63138;55.082;38.804;2023-11-19T05:11:27;100751.78;;;-8.32;100.00
74631;BME280;63138;55.082;38.804;2023-11-19T05:13:54;100747.28;;;-8.29;100.00
74631;BME280;63138;55.082;38.804;2023-11-19T05:16:20;100748.19;;;-8.28;100.00
74631;BME280;63138;55.082;38.804;2023-11-19T05:18:47;100751.53;;;-8.23;100.00
74631;BME280;63138;55.082;38.804;2023-11-19T05:21:13;100733.97;;;-8.21;100.00
74631;BME280;63138;55.082;38.804;2023-11-19T05:23:39;100735.56;;;-8.15;100.00
74631;BME280;63138;55.082;38.804;2023-11-19T05:26:05;100737.22;;;-8.11;100.00
74631;BME280;63138;55.082;38.804;2023-11-19T05:28:31;100736.22;;;-8.07;100.00
74631;BME280;63138;55.082;38.804;2023-11-19T05:30:57;100740.47;;;-8.01;100.00
74631;BME280;63138;55.082;38.804;2023-11-19T05:33:23;100738.56;;;-7.96;100.00
74631;BME280;63138;55.082;38.804;2023-11-19T05:35:49;100734.22;;;-7.97;100.00
74631;BME280;63138;55.082;38.804;2023-11-19T05:38:15;100740.31;;;-7.95;100.00
74631;BME280;63138;55.082;38.804;2023-11-19T05:40:41;100741.06;;;-7.90;100.00
74631;BME280;63138;55.082;38.804;2023-11-19T05:43:07;100727.78;;;-7.87;100.00
74631;BME280;63138;55.082;38.804;2023-11-19T05:45:33;100727.88;;;-7.90;100.00
74631;BME280;63138;55.082;38.804;2023-11-19T05:48:00;100740.84;;;-7.82;100.00
74631;BME280;63138;55.082;38.804;2023-11-19T05:50:25;100743.47;;;-7.81;100.00
74631;BME280;63138;55.082;38.804;2023-11-19T05:52:51;100739.13;;;-7.83;100.00
74631;BME280;63138;55.082;38.804;2023-11-19T05:55:18;100733.59;;;-7.74;100.00
74631;BME280;63138;55.082;38.804;2023-11-19T05:57:45;100728.19;;;-7.70;100.00
74631;BME280;63138;55.082;38.804;2023-11-19T06:00:11;100735.16;;;-7.67;100.00
74631;BME280;63138;55.082;38.804;2023-11-19T06:02:39;100727.34;;;-7.70;100.00
74631;BME280;63138;55.082;38.804;2023-11-19T06:05:05;100729.94;;;-7.69;100.00
74631;BME280;63138;55.082;38.804;2023-11-19T06:07:33;100729.84;;;-7.65;100.00
74631;BME280;63138;55.082;38.804;2023-11-19T06:09:59;100728.91;;;-7.63;100.00
74631;BME280;63138;55.082;38.804;2023-11-19T06:12:25;100739.44;;;-7.61;100.00
74631;BME280;63138;55.082;38.804;2023-11-19T06:14:53;100738.47;;;-7.59;100.00
74631;BME280;63138;55.082;38.804;2023-11-19T06:17:20;100743.50;;;-7.51;100.00
74631;BME280;63138;55.082;38.804;2023-11-19T06:19:46;100745.19;;;-7.47;100.00
74631;BME280;63138;55.082;38.804;2023-11-19T06:22:12;100742.69;;;-7.53;100.00
74631;BME280;63138;55.082;38.804;2023-11-19T06:24:38;100737.34;;;-7.50;100.00
74631;BME280;63138;55.082;38.804;2023-11-19T06:27:04;100728.66;;;-7.54;100.00
74631;BME280;63138;55.082;38.804;2023-11-19T06:29:30;100734.66;;;-7.48;100.00
74631;BME280;63138;55.082;38.804;2023-11-19T06:31:56;100736.13;;;-7.38;100.00
74631;BME280;63138;55.082;38.804;2023-11-19T06:34:23;100728.97;;;-7.35;100.00
74631;BME280;63138;55.082;38.804;2023-11-19T06:37:07;100727.91;;;-7.27;100.00
74631;BME280;63138;55.082;38.804;2023-11-19T06:39:34;100716.44;;;-7.26;100.00
74631;BME280;63138;55.082;38.804;2023-11-19T06:42:19;100715.44;;;-7.22;100.00
74631;BME280;63138;55.082;38.804;2023-11-19T06:44:46;100714.66;;;-7.26;100.00
74631;BME280;63138;55.082;38.804;2023-11-19T06:47:12;100715.34;;;-7.19;100.00
74631;BME280;63138;55.082;38.804;2023-11-19T06:49:38;100714.25;;;-7.12;100.00
74631;BME280;63138;55.082;38.804;2023-11-19T06:52:04;100717.59;;;-7.05;100.00
74631;BME280;63138;55.082;38.804;2023-11-19T06:54:30;100719.22;;;-7.01;100.00
74631;BME280;63138;55.082;38.804;2023-11-19T06:56:56;100718.25;;;-6.99;100.00
74631;BME280;63138;55.082;38.804;2023-11-19T06:59:23;100718.13;;;-6.94;100.00
74631;BME280;63138;55.082;38.804;2023-11-19T07:01:49;100714.47;;;-6.90;100.00
74631;BME280;63138;55.082;38.804;2023-11-19T07:04:15;100713.53;;;-6.87;100.00
74631;BME280;63138;55.082;38.804;2023-11-19T07:06:41;100709.88;;;-6.83;100.00
74631;BME280;63138;55.082;38.804;2023-11-19T07:09:08;100708.03;;;-6.81;100.00
74631;BME280;63138;55.082;38.804;2023-11-19T07:11:41;100714.91;;;-6.76;100.00
74631;BME280;63138;55.082;38.804;2023-11-19T07:14:08;100703.41;;;-6.73;100.00
74631;BME280;63138;55.082;38.804;2023-11-19T07:16:34;100707.88;;;-6.75;100.00
74631;BME280;63138;55.082;38.804;2023-11-19T07:19:03;100704.81;;;-6.63;100.00
74631;BME280;63138;55.082;38.804;2023-11-19T07:21:29;100699.22;;;-6.80;100.00
74631;BME280;63138;55.082;38.804;2023-11-19T07:23:55;100694.50;;;-6.70;100.00
74631;BME280;63138;55.082;38.804;2023-11-19T07:26:22;100691.00;;;-6.71;100.00
74631;BME280;63138;55.082;38.804;2023-11-19T07:28:49;100693.16;;;-6.04;100.00
74631;BME280;63138;55.082;38.804;2023-11-19T07:31:15;100689.16;;;-5.65;100.00
74631;BME280;63138;55.082;38.804;2023-11-19T07:33:42;100698.09;;;-5.69;100.00
74631;BME280;63138;55.082;38.804;2023-11-19T07:36:11;100696.63;;;-5.53;100.00
74631;BME280;63138;55.082;38.804;2023-11-19T07:38:37;100697.16;;;-4.30;100.00
74631;BME280;63138;55.082;38.804;2023-11-19T07:41:05;100695.19;;;-4.04;100.00
74631;BME280;63138;55.082;38.804;2023-11-19T07:43:31;100693.75;;;-4.77;100.00
74631;BME280;63138;55.082;38.804;2023-11-19T07:45:58;100690.84;;;-4.93;100.00
74631;BME280;63138;55.082;38.804;2023-11-19T07:48:27;100698.25;;;-5.02;100.00
74631;BME280;63138;55.082;38.804;2023-11-19T07:50:53;100696.75;;;-5.32;100.00
74631;BME280;63138;55.082;38.804;2023-11-19T07:53:19;100692.31;;;-5.32;100.00
74631;BME280;63138;55.082;38.804;2023-11-19T07:55:46;100687.13;;;-5.35;100.00
74631;BME280;63138;55.082;38.804;2023-11-19T07:58:12;100697.59;;;-5.55;100.00
74631;BME280;63138;55.082;38.804;2023-11-19T08:00:38;100688.22;;;-5.64;100.00
74631;BME280;63138;55.082;38.804;2023-11-19T08:03:04;100684.81;;;-5.68;100.00
74631;BME280;63138;55.082;38.804;2023-11-19T08:05:33;100687.41;;;-5.66;100.00
74631;BME280;63138;55.082;38.804;2023-11-19T08:07:59;100678.19;;;-5.80;100.00
74631;BME280;63138;55.082;38.804;2023-11-19T08:10:26;100680.75;;;-5.78;100.00
74631;BME280;63138;55.082;38.804;2023-11-19T08:12:52;100679.81;;;-5.76;100.00
74631;BME280;63138;55.082;38.804;2023-11-19T08:15:18;100679.63;;;-5.71;100.00
74631;BME280;63138;55.082;38.804;2023-11-19T08:17:44;100676.88;;;-5.93;100.00
74631;BME280;63138;55.082;38.804;2023-11-19T08:20:10;100682.41;;;-5.98;100.00
74631;BME280;63138;55.082;38.804;2023-11-19T08:22:37;100686.41;;;-6.12;100.00
74631;BME280;63138;55.082;38.804;2023-11-19T08:25:07;100678.63;;;-5.92;100.00
74631;BME280;63138;55.082;38.804;2023-11-19T08:27:33;100665.16;;;-6.09;100.00
74631;BME280;63138;55.082;38.804;2023-11-19T08:29:59;100670.34;;;-6.06;100.00
74631;BME280;63138;55.082;38.804;2023-11-19T08:32:26;100669.97;;;-5.96;100.00
74631;BME280;63138;55.082;38.804;2023-11-19T08:35:10;100659.31;;;-5.94;100.00
74631;BME280;63138;55.082;38.804;2023-11-19T08:37:36;100665.63;;;-5.98;100.00
74631;BME280;63138;55.082;38.804;2023-11-19T08:40:04;100641.78;;;-5.97;100.00
74631;BME280;63138;55.082;38.804;2023-11-19T08:42:30;100649.34;;;-5.87;100.00
74631;BME280;63138;55.082;38.804;2023-11-19T08:44:56;100650.59;;;-5.72;100.00
74631;BME280;63138;55.082;38.804;2023-11-19T08:47:22;100655.91;;;-5.72;100.00
74631;BME280;63138;55.082;38.804;2023-11-19T08:49:52;100666.69;;;-5.79;100.00
74631;BME280;63138;55.082;38.804;2023-11-19T08:52:18;100651.25;;;-5.91;100.00
74631;BME280;63138;55.082;38.804;2023-11-19T08:54:44;100649.81;;;-6.00;100.00
74631;BME280;63138;55.082;38.804;2023-11-19T08:57:10;100649.34;;;-5.87;100.00
74631;BME280;63138;55.082;38.804;2023-11-19T08:59:37;100650.72;;;-5.76;100.00
74631;BME280;63138;55.082;38.804;2023-11-19T09:02:06;100641.72;;;-5.71;100.00
74631;BME280;63138;55.082;38.804;2023-11-19T09:04:34;100644.00;;;-5.86;100.00
74631;BME280;63138;55.082;38.804;2023-11-19T09:07:00;100648.25;;;-5.82;100.00
74631;BME280;63138;55.082;38.804;2023-11-19T09:09:51;100644.97;;;-5.63;100.00
74631;BME280;63138;55.082;38.804;2023-11-19T09:12:17;100629.09;;;-5.63;100.00
74631;BME280;63138;55.082;38.804;2023-11-19T09:14:43;100634.59;;;-5.46;100.00
74631;BME280;63138;55.082;38.804;2023-11-19T09:17:09;100627.19;;;-5.36;100.00
74631;BME280;63138;55.082;38.804;2023-11-19T09:19:35;100623.03;;;-5.43;100.00
74631;BME280;63138;55.082;38.804;2023-11-19T09:22:20;100620.91;;;-5.57;100.00
74631;BME280;63138;55.082;38.804;2023-11-19T09:24:46;100629.25;;;-5.44;100.00
74631;BME280;63138;55.082;38.804;2023-11-19T09:27:13;100632.19;;;-5.52;100.00
74631;BME280;63138;55.082;38.804;2023-11-19T09:29:39;100622.47;;;-5.51;100.00
74631;BME280;63138;55.082;38.804;2023-11-19T09:32:06;100618.84;;;-5.49;100.00
74631;BME280;63138;55.082;38.804;2023-11-19T09:34:32;100616.66;;;-5.38;100.00
74631;BME280;63138;55.082;38.804;2023-11-19T09:36:59;100608.81;;;-5.41;100.00
74631;BME280;63138;55.082;38.804;2023-11-19T09:39:28;100620.94;;;-5.35;100.00
74631;BME280;63138;55.082;38.804;2023-11-19T09:41:54;100622.56;;;-5.31;100.00
74631;BME280;63138;55.082;38.804;2023-11-19T09:44:19;100609.47;;;-5.12;100.00
74631;BME280;63138;55.082;38.804;2023-11-19T09:46:47;100611.47;;;-4.95;100.00
74631;BME280;63138;55.082;38.804;2023-11-19T09:49:16;100609.84;;;-4.99;100.00
74631;BME280;63138;55.082;38.804;2023-11-19T09:51:46;100598.50;;;-5.03;100.00
74631;BME280;63138;55.082;38.804;2023-11-19T09:54:12;100599.22;;;-4.99;100.00
74631;BME280;63138;55.082;38.804;2023-11-19T09:56:39;100591.66;;;-5.08;100.00
74631;BME280;63138;55.082;38.804;2023-11-19T09:59:05;100595.63;;;-4.96;100.00
74631;BME280;63138;55.082;38.804;2023-11-19T10:01:50;100590.31;;;-4.96;100.00
74631;BME280;63138;55.082;38.804;2023-11-19T10:04:18;100590.53;;;-5.03;100.00
74631;BME280;63138;55.082;38.804;2023-11-19T10:06:44;100594.56;;;-5.14;100.00
74631;BME280;63138;55.082;38.804;2023-11-19T10:09:12;100589.28;;;-5.14;100.00
74631;BME280;63138;55.082;38.804;2023-11-19T10:11:40;100587.72;;;-5.20;100.00
74631;BME280;63138;55.082;38.804;2023-11-19T10:14:06;100576.94;;;-5.15;100.00
74631;BME280;63138;55.082;38.804;2023-11-19T10:16:34;100582.88;;;-5.09;100.00
74631;BME280;63138;55.082;38.804;2023-11-19T10:19:00;100581.91;;;-5.08;100.00
74631;BME280;63138;55.082;38.804;2023-11-19T10:21:26;100580.16;;;-5.07;100.00
74631;BME280;63138;55.082;38.804;2023-11-19T10:23:55;100590.00;;;-5.11;100.00
74631;BME280;63138;55.082;38.804;2023-11-19T10:26:27;100589.53;;;-5.44;100.00
74631;BME280;63138;55.082;38.804;2023-11-19T10:28:55;100589.69;;;-5.47;100.00
74631;BME280;63138;55.082;38.804;2023-11-19T10:31:22;100597.31;;;-5.40;100.00
74631;BME280;63138;55.082;38.804;2023-11-19T10:33:52;100589.47;;;-5.43;100.00
74631;BME280;63138;55.082;38.804;2023-11-19T10:36:18;100584.25;;;-5.44;100.00
74631;BME280;63138;55.082;38.804;2023-11-19T10:38:53;100588.56;;;-5.42;100.00
74631;BME280;63138;55.082;38.804;2023-11-19T10:41:29;100587.03;;;-5.47;100.00
74631;BME280;63138;55.082;38.804;2023-11-19T10:43:57;100567.97;;;-5.57;100.00
74631;BME280;63138;55.082;38.804;2023-11-19T10:46:36;100582.47;;;-5.44;100.00
74631;BME280;63138;55.082;38.804;2023-11-19T10:49:02;100575.81;;;-5.54;100.00
74631;BME280;63138;55.082;38.804;2023-11-19T10:51:29;100571.94;;;-5.45;100.00
74631;BME280;63138;55.082;38.804;2023-11-19T10:54:08;100566.88;;;-5.51;100.00
74631;BME280;63138;55.082;38.804;2023-11-19T10:56:35;100559.53;;;-5.67;100.00
74631;BME280;63138;55.082;38.804;2023-11-19T10:59:02;100558.16;;;-5.77;100.00
74631;BME280;63138;55.082;38.804;2023-11-19T11:01:45;100553.59;;;-5.73;100.00
74631;BME280;63138;55.082;38.804;2023-11-19T11:04:14;100555.00;;;-5.87;100.00
74631;BME280;63138;55.082;38.804;2023-11-19T11:06:43;100566.72;;;-5.94;100.00
74631;BME280;63138;55.082;38.804;2023-11-19T11:09:10;100564.44;;;-6.03;100.00
74631;BME280;63138;55.082;38.804;2023-11-19T11:11:41;100560.41;;;-6.13;100.00
74631;BME280;63138;55.082;38.804;2023-11-19T11:14:13;100567.47;;;-6.14;100.00
74631;BME280;63138;55.082;38.804;2023-11-19T11:16:43;100575.25;;;-6.09;100.00
74631;BME280;63138;55.082;38.804;2023-11-19T11:19:10;100580.38;;;-6.05;100.00
74631;BME280;63138;55.082;38.804;2023-11-19T11:21:39;100577.66;;;-6.03;100.00
74631;BME280;63138;55.082;38.804;2023-11-19T11:29:09;100581.38;;;-6.09;100.00
74631;BME280;63138;55.082;38.804;2023-11-19T11:31:54;100571.91;;;-6.15;100.00
74631;BME280;63138;55.082;38.804;2023-11-19T11:34:42;100578.56;;;-6.28;100.00
74631;BME280;63138;55.082;38.804;2023-11-19T11:39:57;100578.41;;;-6.50;100.00
74631;BME280;63138;55.082;38.804;2023-11-19T11:45:07;100581.81;;;-6.46;100.00
74631;BME280;63138;55.082;38.804;2023-11-19T11:50:12;100559.56;;;-6.39;100.00
74631;BME280;63138;55.082;38.804;2023-11-19T11:58:17;100543.25;;;-6.52;100.00
74631;BME280;63138;55.082;38.804;2023-11-19T12:00:43;100543.16;;;-6.49;100.00
74631;BME280;63138;55.082;38.804;2023-11-19T12:03:11;100537.06;;;-6.51;100.00
74631;BME280;63138;55.082;38.804;2023-11-19T12:05:45;100536.97;;;-6.48;100.00
74631;BME280;63138;55.082;38.804;2023-11-19T12:08:15;100527.06;;;-6.43;100.00
74631;BME280;63138;55.082;38.804;2023-11-19T12:10:49;100530.66;;;-6.44;100.00
74631;BME280;63138;55.082;38.804;2023-11-19T12:13:15;100526.44;;;-6.49;100.00
74631;BME280;63138;55.082;38.804;2023-11-19T12:18:27;100527.31;;;-6.49;100.00
74631;BME280;63138;55.082;38.804;2023-11-19T12:20:56;100514.09;;;-6.49;100.00
74631;BME280;63138;55.082;38.804;2023-11-19T12:23:23;100507.81;;;-6.46;100.00
74631;BME280;63138;55.082;38.804;2023-11-19T12:25:49;100507.63;;;-6.40;100.00
74631;BME280;63138;55.082;38.804;2023-11-19T12:28:17;100507.16;;;-6.51;100.00
74631;BME280;63138;55.082;38.804;2023-11-19T12:31:09;100499.59;;;-6.62;100.00
74631;BME280;63138;55.082;38.804;2023-11-19T12:33:35;100515.47;;;-6.62;100.00
74631;BME280;63138;55.082;38.804;2023-11-19T12:36:03;100512.97;;;-6.67;100.00
74631;BME280;63138;55.082;38.804;2023-11-19T12:38:31;100514.91;;;-6.72;100.00
74631;BME280;63138;55.082;38.804;2023-11-19T12:41:06;100505.69;;;-6.85;100.00
74631;BME280;63138;55.082;38.804;2023-11-19T12:43:33;100503.03;;;-6.85;100.00
74631;BME280;63138;55.082;38.804;2023-11-19T12:46:19;100507.41;;;-6.84;100.00
74631;BME280;63138;55.082;38.804;2023-11-19T12:48:49;100492.66;;;-6.92;100.00
74631;BME280;63138;55.082;38.804;2023-11-19T12:51:16;100498.66;;;-6.86;100.00
74631;BME280;63138;55.082;38.804;2023-11-19T12:53:52;100494.31;;;-6.87;100.00